sensor_id;sensor_type;location;lat;lon;timestamp;pressure;altitude;pressure_sealevel;temperature;humidity
24620;BME280;12763;55.802;37.404;2023-05-09T00:02:15;101065.69;;;5.71;71.11
24620;BME280;12763;55.802;37.404;2023-05-09T00:04:42;101054.88;;;5.69;71.91
24620;BME280;12763;55.802;37.404;2023-05-09T00:07:08;101054.53;;;5.55;72.95
24620;BME280;12763;55.802;37.404;2023-05-09T00:09:35;101059.44;;;5.51;72.76
24620;BME280;12763;55.802;37.404;2023-05-09T00:12:04;101060.00;;;5.55;72.39
24620;BME280;12763;55.802;37.404;2023-05-09T00:14:30;101064.91;;;5.51;73.24
24620;BME280;12763;55.802;37.404;2023-05-09T00:16:58;101059.72;;;5.48;73.32
24620;BME280;12763;55.802;37.404;2023-05-09T00:19:24;101050.94;;;5.45;72.71
24620;BME280;12763;55.802;37.404;2023-05-09T00:21:51;101061.03;;;5.44;72.22
24620;BME280;12763;55.802;37.404;2023-05-09T00:24:17;101072.47;;;5.30;74.28
24620;BME280;12763;55.802;37.404;2023-05-09T00:26:43;101070.69;;;5.39;74.51
24620;BME280;12763;55.802;37.404;2023-05-09T00:29:09;101069.56;;;5.41;73.88
24620;BME280;12763;55.802;37.404;2023-05-09T00:31:41;101071.97;;;5.44;73.30
24620;BME280;12763;55.802;37.404;2023-05-09T00:34:08;101062.47;;;5.39;73.85
24620;BME280;12763;55.802;37.404;2023-05-09T00:36:34;101065.25;;;5.29;75.09
24620;BME280;12763;55.802;37.404;2023-05-09T00:39:00;101072.47;;;5.30;75.22
24620;BME280;12763;55.802;37.404;2023-05-09T00:41:30;101071.91;;;5.26;74.72
24620;BME280;12763;55.802;37.404;2023-05-09T00:43:56;101065.44;;;5.18;76.11
24620;BME280;12763;55.802;37.404;2023-05-09T00:46:22;101069.03;;;5.09;78.20
24620;BME280;12763;55.802;37.404;2023-05-09T00:48:49;101075.38;;;5.09;78.43
24620;BME280;12763;55.802;37.404;2023-05-09T00:51:17;101079.13;;;5.08;78.20
24620;BME280;12763;55.802;37.404;2023-05-09T00:53:44;101076.25;;;5.10;78.43
24620;BME280;12763;55.802;37.404;2023-05-09T00:56:11;101069.34;;;5.15;77.71
24620;BME280;12763;55.802;37.404;2023-05-09T00:58:40;101071.06;;;5.16;77.43
24620;BME280;12763;55.802;37.404;2023-05-09T01:01:07;101067.75;;;5.13;78.17
24620;BME280;12763;55.802;37.404;2023-05-09T01:03:34;101080.72;;;5.11;78.16
24620;BME280;12763;55.802;37.404;2023-05-09T01:06:06;101070.50;;;5.13;78.43
24620;BME280;12763;55.802;37.404;2023-05-09T01:08:44;101081.56;;;5.11;78.11
24620;BME280;12763;55.802;37.404;2023-05-09T01:11:35;101069.78;;;5.11;78.62
24620;BME280;12763;55.802;37.404;2023-05-09T01:14:32;101083.47;;;5.11;78.11
24620;BME280;12763;55.802;37.404;2023-05-09T01:19:56;101075.84;;;4.95;79.81
24620;BME280;12763;55.802;37.404;2023-05-09T01:22:45;101073.97;;;4.96;78.71
24620;BME280;12763;55.802;37.404;2023-05-09T01:25:35;101078.84;;;4.92;79.61
24620;BME280;12763;55.802;37.404;2023-05-09T01:30:55;101072.84;;;4.89;79.02
24620;BME280;12763;55.802;37.404;2023-05-09T01:33:26;101075.56;;;4.89;79.19
24620;BME280;12763;55.802;37.404;2023-05-09T01:35:58;101080.00;;;4.90;79.75
24620;BME280;12763;55.802;37.404;2023-05-09T01:38:32;101077.44;;;4.88;79.82
24620;BME280;12763;55.802;37.404;2023-05-09T01:41:01;101076.56;;;4.88;79.87
24620;BME280;12763;55.802;37.404;2023-05-09T01:43:35;101075.69;;;4.87;79.99
24620;BME280;12763;55.802;37.404;2023-05-09T01:46:09;101078.00;;;4.82;80.07
24620;BME280;12763;55.802;37.404;2023-05-09T01:48:37;101076.84;;;4.85;80.42
24620;BME280;12763;55.802;37.404;2023-05-09T01:51:04;101072.84;;;4.79;80.53
24620;BME280;12763;55.802;37.404;2023-05-09T01:53:35;101085.22;;;4.73;80.39
24620;BME280;12763;55.802;37.404;2023-05-09T01:56:03;101073.41;;;4.73;80.63
24620;BME280;12763;55.802;37.404;2023-05-09T01:58:31;101082.47;;;4.73;80.48
24620;BME280;12763;55.802;37.404;2023-05-09T02:00:59;101081.47;;;4.74;80.71
24620;BME280;12763;55.802;37.404;2023-05-09T02:03:30;101084.34;;;4.73;79.82
24620;BME280;12763;55.802;37.404;2023-05-09T02:06:00;101084.78;;;4.68;80.23
24620;BME280;12763;55.802;37.404;2023-05-09T02:08:32;101083.75;;;4.69;80.79
24620;BME280;12763;55.802;37.404;2023-05-09T02:10:59;101085.50;;;4.70;80.43
24620;BME280;12763;55.802;37.404;2023-05-09T02:13:26;101086.34;;;4.81;80.27
24620;BME280;12763;55.802;37.404;2023-05-09T02:15:53;101079.16;;;4.80;80.50
24620;BME280;12763;55.802;37.404;2023-05-09T02:18:20;101095.00;;;4.76;81.03
24620;BME280;12763;55.802;37.404;2023-05-09T02:20:47;101087.09;;;4.83;81.63
24620;BME280;12763;55.802;37.404;2023-05-09T02:23:13;101088.94;;;4.92;80.97
24620;BME280;12763;55.802;37.404;2023-05-09T02:25:40;101093.53;;;5.01;80.61
24620;BME280;12763;55.802;37.404;2023-05-09T02:28:10;101087.19;;;5.10;80.02
24620;BME280;12763;55.802;37.404;2023-05-09T02:30:41;101080.28;;;5.15;80.54
24620;BME280;12763;55.802;37.404;2023-05-09T02:33:11;101080.84;;;5.19;80.37
24620;BME280;12763;55.802;37.404;2023-05-09T02:35:41;101089.47;;;5.24;80.18
24620;BME280;12763;55.802;37.404;2023-05-09T02:38:12;101087.44;;;5.26;79.79
24620;BME280;12763;55.802;37.404;2023-05-09T02:40:42;101087.28;;;5.27;79.53
24620;BME280;12763;55.802;37.404;2023-05-09T02:43:09;101086.00;;;5.31;79.13
24620;BME280;12763;55.802;37.404;2023-05-09T02:45:38;101084.53;;;5.37;79.61
24620;BME280;12763;55.802;37.404;2023-05-09T02:48:05;101087.00;;;5.40;79.45
24620;BME280;12763;55.802;37.404;2023-05-09T02:50:32;101088.09;;;5.47;78.64
24620;BME280;12763;55.802;37.404;2023-05-09T02:52:58;101091.28;;;5.52;78.27
24620;BME280;12763;55.802;37.404;2023-05-09T02:55:25;101091.13;;;5.54;78.50
24620;BME280;12763;55.802;37.404;2023-05-09T02:57:51;101103.94;;;5.53;78.71
24620;BME280;12763;55.802;37.404;2023-05-09T03:00:18;101095.56;;;5.64;78.02
24620;BME280;12763;55.802;37.404;2023-05-09T03:02:50;101105.44;;;5.84;77.04
24620;BME280;12763;55.802;37.404;2023-05-09T03:05:16;101097.94;;;5.86;76.43
24620;BME280;12763;55.802;37.404;2023-05-09T03:07:43;101107.44;;;5.92;75.69
24620;BME280;12763;55.802;37.404;2023-05-09T03:10:10;101104.81;;;6.00;75.36
24620;BME280;12763;55.802;37.404;2023-05-09T03:12:38;101106.38;;;6.03;75.38
24620;BME280;12763;55.802;37.404;2023-05-09T03:15:05;101110.25;;;6.10;75.14
24620;BME280;12763;55.802;37.404;2023-05-09T03:17:32;101104.88;;;6.18;74.64
24620;BME280;12763;55.802;37.404;2023-05-09T03:19:59;101109.28;;;6.28;74.04
24620;BME280;12763;55.802;37.404;2023-05-09T03:22:25;101108.78;;;6.33;74.08
24620;BME280;12763;55.802;37.404;2023-05-09T03:24:59;101114.59;;;6.30;74.84
24620;BME280;12763;55.802;37.404;2023-05-09T03:27:27;101110.22;;;6.37;74.14
24620;BME280;12763;55.802;37.404;2023-05-09T03:29:54;101106.72;;;6.44;74.11
24620;BME280;12763;55.802;37.404;2023-05-09T03:32:21;101107.97;;;6.50;73.40
24620;BME280;12763;55.802;37.404;2023-05-09T03:34:49;101114.66;;;6.65;72.87
24620;BME280;12763;55.802;37.404;2023-05-09T03:37:18;101111.53;;;6.78;71.69
24620;BME280;12763;55.802;37.404;2023-05-09T03:39:47;101111.53;;;6.95;71.45
24620;BME280;12763;55.802;37.404;2023-05-09T03:42:13;101110.63;;;7.13;70.63
24620;BME280;12763;55.802;37.404;2023-05-09T03:44:43;101111.72;;;7.20;69.41
24620;BME280;12763;55.802;37.404;2023-05-09T03:47:10;101112.50;;;7.30;68.90
24620;BME280;12763;55.802;37.404;2023-05-09T03:49:38;101111.22;;;7.42;68.27
24620;BME280;12763;55.802;37.404;2023-05-09T03:52:08;101109.59;;;7.57;67.85
24620;BME280;12763;55.802;37.404;2023-05-09T03:54:38;101110.72;;;7.72;67.00
24620;BME280;12763;55.802;37.404;2023-05-09T03:57:04;101106.34;;;7.87;65.86
24620;BME280;12763;55.802;37.404;2023-05-09T03:59:32;101119.47;;;8.01;65.09
24620;BME280;12763;55.802;37.404;2023-05-09T04:01:59;101120.22;;;8.11;64.71
24620;BME280;12763;55.802;37.404;2023-05-09T04:04:26;101119.94;;;8.22;64.28
24620;BME280;12763;55.802;37.404;2023-05-09T04:06:53;101121.00;;;8.30;63.87
24620;BME280;12763;55.802;37.404;2023-05-09T04:09:31;101130.69;;;8.42;63.59
24620;BME280;12763;55.802;37.404;2023-05-09T04:11:58;101129.00;;;8.49;62.95
24620;BME280;12763;55.802;37.404;2023-05-09T04:14:24;101119.38;;;8.53;62.59
24620;BME280;12763;55.802;37.404;2023-05-09T04:16:54;101129.75;;;8.67;61.94
24620;BME280;12763;55.802;37.404;2023-05-09T04:19:21;101131.47;;;8.76;61.35
24620;BME280;12763;55.802;37.404;2023-05-09T04:21:50;101132.19;;;8.86;60.94
24620;BME280;12763;55.802;37.404;2023-05-09T04:24:17;101122.75;;;8.97;60.48
24620;BME280;12763;55.802;37.404;2023-05-09T04:26:46;101122.91;;;9.03;59.75
24620;BME280;12763;55.802;37.404;2023-05-09T04:29:15;101123.63;;;9.13;59.23
24620;BME280;12763;55.802;37.404;2023-05-09T04:31:47;101128.06;;;9.22;58.25
24620;BME280;12763;55.802;37.404;2023-05-09T04:34:14;101123.28;;;9.32;57.94
24620;BME280;12763;55.802;37.404;2023-05-09T04:36:41;101128.09;;;9.47;57.34
24620;BME280;12763;55.802;37.404;2023-05-09T04:39:08;101131.34;;;9.50;56.24
24620;BME280;12763;55.802;37.404;2023-05-09T04:41:37;101128.59;;;9.50;55.57
24620;BME280;12763;55.802;37.404;2023-05-09T04:44:04;101138.72;;;9.74;55.07
24620;BME280;12763;55.802;37.404;2023-05-09T04:46:30;101131.66;;;9.79;54.53
24620;BME280;12763;55.802;37.404;2023-05-09T04:48:57;101132.13;;;9.99;53.69
24620;BME280;12763;55.802;37.404;2023-05-09T04:51:23;101125.53;;;10.08;52.96
24620;BME280;12763;55.802;37.404;2023-05-09T04:53:51;101126.91;;;10.12;51.99
24620;BME280;12763;55.802;37.404;2023-05-09T04:56:20;101119.66;;;10.27;51.03
24620;BME280;12763;55.802;37.404;2023-05-09T04:58:48;101122.75;;;10.32;50.98
24620;BME280;12763;55.802;37.404;2023-05-09T05:01:15;101126.81;;;10.44;50.07
24620;BME280;12763;55.802;37.404;2023-05-09T05:03:44;101138.97;;;10.58;48.97
24620;BME280;12763;55.802;37.404;2023-05-09T05:06:11;101126.09;;;10.50;48.74
24620;BME280;12763;55.802;37.404;2023-05-09T05:08:39;101134.59;;;10.72;48.14
24620;BME280;12763;55.802;37.404;2023-05-09T05:11:06;101134.22;;;10.75;47.60
24620;BME280;12763;55.802;37.404;2023-05-09T05:13:33;101121.88;;;10.93;46.70
24620;BME280;12763;55.802;37.404;2023-05-09T05:16:01;101130.47;;;10.98;46.67
24620;BME280;12763;55.802;37.404;2023-05-09T05:18:28;101132.44;;;11.12;46.27
24620;BME280;12763;55.802;37.404;2023-05-09T05:20:57;101123.97;;;11.14;46.12
24620;BME280;12763;55.802;37.404;2023-05-09T05:23:25;101125.63;;;11.23;45.56
24620;BME280;12763;55.802;37.404;2023-05-09T05:25:53;101124.69;;;11.31;45.22
24620;BME280;12763;55.802;37.404;2023-05-09T05:28:20;101124.91;;;11.44;44.55
24620;BME280;12763;55.802;37.404;2023-05-09T05:30:46;101116.66;;;11.58;44.40
24620;BME280;12763;55.802;37.404;2023-05-09T05:33:13;101124.28;;;11.79;43.63
24620;BME280;12763;55.802;37.404;2023-05-09T05:35:42;101121.44;;;11.87;42.61
24620;BME280;12763;55.802;37.404;2023-05-09T05:38:09;101122.88;;;11.98;42.23
24620;BME280;12763;55.802;37.404;2023-05-09T05:40:36;101111.16;;;11.96;41.52
24620;BME280;12763;55.802;37.404;2023-05-09T05:43:05;101121.53;;;12.08;41.47
24620;BME280;12763;55.802;37.404;2023-05-09T05:45:32;101112.94;;;12.03;41.32
24620;BME280;12763;55.802;37.404;2023-05-09T05:48:02;101110.63;;;12.07;41.14
24620;BME280;12763;55.802;37.404;2023-05-09T05:50:30;101118.19;;;12.27;40.76
24620;BME280;12763;55.802;37.404;2023-05-09T05:52:57;101100.53;;;12.14;40.37
24620;BME280;12763;55.802;37.404;2023-05-09T05:55:24;101108.09;;;12.20;41.00
24620;BME280;12763;55.802;37.404;2023-05-09T05:57:50;101112.44;;;12.29;40.37
24620;BME280;12763;55.802;37.404;2023-05-09T06:00:16;101106.91;;;12.29;39.64
24620;BME280;12763;55.802;37.404;2023-05-09T06:02:47;101111.38;;;12.59;39.65
24620;BME280;12763;55.802;37.404;2023-05-09T06:05:23;101107.13;;;12.78;38.94
24620;BME280;12763;55.802;37.404;2023-05-09T06:07:51;101107.19;;;12.84;38.73
24620;BME280;12763;55.802;37.404;2023-05-09T06:10:17;101113.03;;;12.89;38.34
24620;BME280;12763;55.802;37.404;2023-05-09T06:12:50;101102.06;;;13.03;38.17
24620;BME280;12763;55.802;37.404;2023-05-09T06:15:16;101097.19;;;13.05;38.56
24620;BME280;12763;55.802;37.404;2023-05-09T06:17:46;101097.03;;;13.27;38.01
24620;BME280;12763;55.802;37.404;2023-05-09T06:20:12;101095.56;;;13.31;37.91
24620;BME280;12763;55.802;37.404;2023-05-09T06:22:39;101088.69;;;13.48;37.75
24620;BME280;12763;55.802;37.404;2023-05-09T06:25:05;101093.91;;;13.58;37.62
24620;BME280;12763;55.802;37.404;2023-05-09T06:27:32;101085.41;;;13.66;37.34
24620;BME280;12763;55.802;37.404;2023-05-09T06:29:58;101082.19;;;13.90;37.33
24620;BME280;12763;55.802;37.404;2023-05-09T06:32:25;101080.44;;;13.89;36.68
24620;BME280;12763;55.802;37.404;2023-05-09T06:34:51;101076.06;;;14.01;36.24
24620;BME280;12763;55.802;37.404;2023-05-09T06:37:17;101080.03;;;13.92;35.97
24620;BME280;12763;55.802;37.404;2023-05-09T06:39:44;101072.69;;;13.78;35.93
24620;BME280;12763;55.802;37.404;2023-05-09T06:42:11;101065.19;;;14.06;35.43
24620;BME280;12763;55.802;37.404;2023-05-09T06:44:38;101068.94;;;14.27;35.06
24620;BME280;12763;55.802;37.404;2023-05-09T06:47:04;101063.66;;;14.32;34.94
24620;BME280;12763;55.802;37.404;2023-05-09T06:49:30;101069.50;;;14.50;34.54
24620;BME280;12763;55.802;37.404;2023-05-09T06:52:00;101069.06;;;14.46;34.17
24620;BME280;12763;55.802;37.404;2023-05-09T06:54:26;101063.16;;;14.62;33.72
24620;BME280;12763;55.802;37.404;2023-05-09T06:56:52;101058.03;;;14.73;33.50
24620;BME280;12763;55.802;37.404;2023-05-09T06:59:22;101057.84;;;14.81;33.41
24620;BME280;12763;55.802;37.404;2023-05-09T07:01:48;101058.03;;;14.66;33.29
24620;BME280;12763;55.802;37.404;2023-05-09T07:04:14;101056.34;;;14.72;32.88
24620;BME280;12763;55.802;37.404;2023-05-09T07:06:40;101048.22;;;14.83;32.61
24620;BME280;12763;55.802;37.404;2023-05-09T07:09:07;101049.09;;;14.77;32.72
24620;BME280;12763;55.802;37.404;2023-05-09T07:11:34;101058.06;;;14.79;32.40
24620;BME280;12763;55.802;37.404;2023-05-09T07:14:02;101047.16;;;14.71;32.26
24620;BME280;12763;55.802;37.404;2023-05-09T07:16:28;101045.22;;;14.78;32.14
24620;BME280;12763;55.802;37.404;2023-05-09T07:18:55;101042.25;;;14.86;32.05
24620;BME280;12763;55.802;37.404;2023-05-09T07:21:21;101047.41;;;14.96;31.80
24620;BME280;12763;55.802;37.404;2023-05-09T07:23:50;101042.72;;;15.36;31.28
24620;BME280;12763;55.802;37.404;2023-05-09T07:26:16;101034.19;;;15.37;31.21
24620;BME280;12763;55.802;37.404;2023-05-09T07:28:42;101038.03;;;15.69;31.15
24620;BME280;12763;55.802;37.404;2023-05-09T07:31:08;101037.19;;;15.62;30.98
24620;BME280;12763;55.802;37.404;2023-05-09T07:33:35;101036.97;;;15.76;30.78
24620;BME280;12763;55.802;37.404;2023-05-09T07:36:04;101033.09;;;15.84;30.21
24620;BME280;12763;55.802;37.404;2023-05-09T07:38:30;101029.47;;;15.83;30.57
24620;BME280;12763;55.802;37.404;2023-05-09T07:40:57;101034.63;;;15.67;30.52
24620;BME280;12763;55.802;37.404;2023-05-09T07:43:23;101024.59;;;15.46;31.11
24620;BME280;12763;55.802;37.404;2023-05-09T07:45:52;101026.28;;;15.41;31.29
24620;BME280;12763;55.802;37.404;2023-05-09T07:48:18;101025.00;;;15.23;31.21
24620;BME280;12763;55.802;37.404;2023-05-09T07:50:45;101020.50;;;15.22;31.36
24620;BME280;12763;55.802;37.404;2023-05-09T07:53:11;101021.56;;;15.74;31.10
24620;BME280;12763;55.802;37.404;2023-05-09T07:55:37;101015.53;;;15.77;30.35
24620;BME280;12763;55.802;37.404;2023-05-09T07:58:03;101016.38;;;15.97;29.96
24620;BME280;12763;55.802;37.404;2023-05-09T08:00:29;101019.50;;;16.20;29.77
24620;BME280;12763;55.802;37.404;2023-05-09T08:02:55;101013.84;;;15.76;29.66
24620;BME280;12763;55.802;37.404;2023-05-09T08:05:21;101006.59;;;15.68;29.88
24620;BME280;12763;55.802;37.404;2023-05-09T08:07:47;101003.41;;;15.52;29.54
24620;BME280;12763;55.802;37.404;2023-05-09T08:10:14;101006.81;;;15.67;29.24
24620;BME280;12763;55.802;37.404;2023-05-09T08:12:41;101002.94;;;15.28;29.67
24620;BME280;12763;55.802;37.404;2023-05-09T08:15:08;100990.78;;;15.49;29.30
24620;BME280;12763;55.802;37.404;2023-05-09T08:17:34;100998.22;;;15.36;29.71
24620;BME280;12763;55.802;37.404;2023-05-09T08:20:01;100997.81;;;15.39;29.65
24620;BME280;12763;55.802;37.404;2023-05-09T08:22:27;100989.91;;;15.16;30.11
24620;BME280;12763;55.802;37.404;2023-05-09T08:24:53;100989.69;;;15.17;29.96
24620;BME280;12763;55.802;37.404;2023-05-09T08:27:19;100990.97;;;15.35;29.73
24620;BME280;12763;55.802;37.404;2023-05-09T08:29:45;100988.63;;;15.32;29.96
24620;BME280;12763;55.802;37.404;2023-05-09T08:32:12;100970.22;;;15.50;30.05
24620;BME280;12763;55.802;37.404;2023-05-09T08:34:39;100985.00;;;15.51;29.84
24620;BME280;12763;55.802;37.404;2023-05-09T08:37:05;100975.59;;;15.52;29.77
24620;BME280;12763;55.802;37.404;2023-05-09T08:39:31;100975.50;;;15.84;29.23
24620;BME280;12763;55.802;37.404;2023-05-09T08:42:00;100971.81;;;16.48;28.64
24620;BME280;12763;55.802;37.404;2023-05-09T08:44:29;100968.78;;;16.87;28.12
24620;BME280;12763;55.802;37.404;2023-05-09T08:47:01;100962.78;;;17.15;28.40
24620;BME280;12763;55.802;37.404;2023-05-09T08:49:28;100953.22;;;17.29;28.10
24620;BME280;12763;55.802;37.404;2023-05-09T08:51:55;100951.63;;;17.15;28.55
24620;BME280;12763;55.802;37.404;2023-05-09T08:54:23;100960.19;;;17.20;28.37
24620;BME280;12763;55.802;37.404;2023-05-09T08:56:50;100963.34;;;16.99;28.03
24620;BME280;12763;55.802;37.404;2023-05-09T08:59:20;100960.22;;;16.89;28.06
24620;BME280;12763;55.802;37.404;2023-05-09T09:01:47;100960.94;;;16.78;27.95
24620;BME280;12763;55.802;37.404;2023-05-09T09:04:14;100958.41;;;16.70;27.61
24620;BME280;12763;55.802;37.404;2023-05-09T09:06:40;100954.00;;;16.87;27.50
24620;BME280;12763;55.802;37.404;2023-05-09T09:09:12;100951.03;;;16.82;27.52
24620;BME280;12763;55.802;37.404;2023-05-09T09:11:41;100949.56;;;17.04;27.63
24620;BME280;12763;55.802;37.404;2023-05-09T09:14:12;100947.50;;;16.93;27.37
24620;BME280;12763;55.802;37.404;2023-05-09T09:16:43;100937.66;;;17.15;27.55
24620;BME280;12763;55.802;37.404;2023-05-09T09:19:11;100937.28;;;17.36;27.27
24620;BME280;12763;55.802;37.404;2023-05-09T09:21:40;100936.06;;;17.50;26.82
24620;BME280;12763;55.802;37.404;2023-05-09T09:24:08;100937.13;;;17.49;26.68
24620;BME280;12763;55.802;37.404;2023-05-09T09:26:46;100934.03;;;18.00;26.33
24620;BME280;12763;55.802;37.404;2023-05-09T09:29:13;100927.81;;;18.46;26.32
24620;BME280;12763;55.802;37.404;2023-05-09T09:31:43;100925.28;;;18.74;25.60
24620;BME280;12763;55.802;37.404;2023-05-09T09:34:10;100917.31;;;19.13;25.26
24620;BME280;12763;55.802;37.404;2023-05-09T09:36:37;100922.28;;;18.28;25.60
24620;BME280;12763;55.802;37.404;2023-05-09T09:39:04;100931.34;;;17.26;26.80
24620;BME280;12763;55.802;37.404;2023-05-09T09:41:31;100923.97;;;16.89;27.34
24620;BME280;12763;55.802;37.404;2023-05-09T09:43:57;100923.09;;;17.13;27.11
24620;BME280;12763;55.802;37.404;2023-05-09T09:46:23;100928.81;;;17.00;26.77
24620;BME280;12763;55.802;37.404;2023-05-09T09:48:49;100923.94;;;17.38;26.97
24620;BME280;12763;55.802;37.404;2023-05-09T09:51:19;100922.22;;;17.62;26.62
24620;BME280;12763;55.802;37.404;2023-05-09T09:53:46;100921.91;;;17.27;26.75
24620;BME280;12763;55.802;37.404;2023-05-09T09:56:12;100910.69;;;17.34;26.79
24620;BME280;12763;55.802;37.404;2023-05-09T09:58:38;100912.13;;;17.18;27.02
24620;BME280;12763;55.802;37.404;2023-05-09T10:01:05;100914.69;;;16.95;26.74
24620;BME280;12763;55.802;37.404;2023-05-09T10:03:42;100906.97;;;16.66;26.34
24620;BME280;12763;55.802;37.404;2023-05-09T10:06:14;100919.75;;;16.49;27.18
24620;BME280;12763;55.802;37.404;2023-05-09T10:08:42;100913.72;;;16.07;27.51
24620;BME280;12763;55.802;37.404;2023-05-09T10:11:11;100913.69;;;16.20;27.52
24620;BME280;12763;55.802;37.404;2023-05-09T10:13:37;100907.94;;;16.46;27.01
24620;BME280;12763;55.802;37.404;2023-05-09T10:16:04;100916.25;;;16.60;26.89
24620;BME280;12763;55.802;37.404;2023-05-09T10:18:33;100906.63;;;16.87;26.56
24620;BME280;12763;55.802;37.404;2023-05-09T10:21:00;100903.25;;;17.03;26.57
24620;BME280;12763;55.802;37.404;2023-05-09T10:23:30;100905.91;;;17.16;26.72
24620;BME280;12763;55.802;37.404;2023-05-09T10:26:16;100907.19;;;17.38;25.57
24620;BME280;12763;55.802;37.404;2023-05-09T10:28:46;100902.09;;;18.56;25.55
24620;BME280;12763;55.802;37.404;2023-05-09T10:31:25;100891.66;;;20.14;23.42
24620;BME280;12763;55.802;37.404;2023-05-09T10:33:52;100891.53;;;20.93;23.52
24620;BME280;12763;55.802;37.404;2023-05-09T10:36:21;100882.50;;;20.91;23.66
24620;BME280;12763;55.802;37.404;2023-05-09T10:38:52;100886.41;;;21.57;22.85
24620;BME280;12763;55.802;37.404;2023-05-09T10:41:20;100876.03;;;21.79;22.43
24620;BME280;12763;55.802;37.404;2023-05-09T10:43:50;100873.91;;;22.30;22.28
24620;BME280;12763;55.802;37.404;2023-05-09T10:46:18;100871.47;;;21.35;22.61
24620;BME280;12763;55.802;37.404;2023-05-09T10:48:46;100863.13;;;22.21;21.92
24620;BME280;12763;55.802;37.404;2023-05-09T10:51:16;100860.34;;;23.38;21.52
24620;BME280;12763;55.802;37.404;2023-05-09T10:53:48;100856.50;;;23.55;20.40
24620;BME280;12763;55.802;37.404;2023-05-09T10:56:34;100853.56;;;23.81;20.04
24620;BME280;12763;55.802;37.404;2023-05-09T10:59:04;100850.91;;;23.60;20.91
24620;BME280;12763;55.802;37.404;2023-05-09T11:01:35;100856.09;;;23.83;20.45
24620;BME280;12763;55.802;37.404;2023-05-09T11:04:09;100844.78;;;24.50;20.17
24620;BME280;12763;55.802;37.404;2023-05-09T11:06:45;100847.97;;;25.14;19.75
24620;BME280;12763;55.802;37.404;2023-05-09T11:09:32;100849.13;;;24.98;19.42
24620;BME280;12763;55.802;37.404;2023-05-09T11:12:12;100840.63;;;23.90;19.50
24620;BME280;12763;55.802;37.404;2023-05-09T11:14:45;100831.84;;;24.59;19.83
24620;BME280;12763;55.802;37.404;2023-05-09T11:22:19;100825.28;;;21.64;21.80
24620;BME280;12763;55.802;37.404;2023-05-09T11:24:51;100828.22;;;20.36;23.02
24620;BME280;12763;55.802;37.404;2023-05-09T11:27:23;100832.34;;;19.77;23.63
24620;BME280;12763;55.802;37.404;2023-05-09T11:29:51;100822.56;;;19.40;24.31
24620;BME280;12763;55.802;37.404;2023-05-09T11:32:20;100818.53;;;19.01;24.36
24620;BME280;12763;55.802;37.404;2023-05-09T11:34:47;100824.63;;;18.74;24.55
24620;BME280;12763;55.802;37.404;2023-05-09T11:37:17;100824.72;;;18.80;24.55
24620;BME280;12763;55.802;37.404;2023-05-09T11:39:56;100815.00;;;18.82;24.73
24620;BME280;12763;55.802;37.404;2023-05-09T11:42:27;100814.28;;;18.34;24.45
24620;BME280;12763;55.802;37.404;2023-05-09T11:44:55;100816.22;;;18.33;24.88
24620;BME280;12763;55.802;37.404;2023-05-09T11:47:23;100818.81;;;18.46;25.09
24620;BME280;12763;55.802;37.404;2023-05-09T11:49:49;100816.34;;;18.91;24.52
24620;BME280;12763;55.802;37.404;2023-05-09T11:52:18;100804.91;;;21.14;23.24
24620;BME280;12763;55.802;37.404;2023-05-09T11:54:44;100807.13;;;21.12;22.85
24620;BME280;12763;55.802;37.404;2023-05-09T11:57:11;100803.78;;;19.91;23.44
24620;BME280;12763;55.802;37.404;2023-05-09T11:59:44;100809.66;;;19.27;23.90
24620;BME280;12763;55.802;37.404;2023-05-09T12:02:11;100801.75;;;19.12;23.95
24620;BME280;12763;55.802;37.404;2023-05-09T12:04:38;100797.50;;;21.07;22.54
24620;BME280;12763;55.802;37.404;2023-05-09T12:07:04;100791.34;;;22.67;21.44
24620;BME280;12763;55.802;37.404;2023-05-09T12:09:33;100793.28;;;23.35;20.96
24620;BME280;12763;55.802;37.404;2023-05-09T12:12:00;100789.72;;;23.50;20.50
24620;BME280;12763;55.802;37.404;2023-05-09T12:14:30;100784.50;;;23.84;19.98
24620;BME280;12763;55.802;37.404;2023-05-09T12:16:57;100790.88;;;24.21;20.00
24620;BME280;12763;55.802;37.404;2023-05-09T12:19:25;100779.94;;;24.80;19.75
24620;BME280;12763;55.802;37.404;2023-05-09T12:21:58;100773.97;;;25.32;18.93
24620;BME280;12763;55.802;37.404;2023-05-09T12:24:25;100776.44;;;24.08;20.29
24620;BME280;12763;55.802;37.404;2023-05-09T12:26:54;100773.97;;;24.62;20.00
24620;BME280;12763;55.802;37.404;2023-05-09T12:29:21;100777.13;;;24.80;19.79
24620;BME280;12763;55.802;37.404;2023-05-09T12:31:48;100765.44;;;25.42;19.37
24620;BME280;12763;55.802;37.404;2023-05-09T12:34:15;100756.50;;;25.00;19.33
24620;BME280;12763;55.802;37.404;2023-05-09T12:36:46;100753.47;;;25.76;18.67
24620;BME280;12763;55.802;37.404;2023-05-09T12:39:19;100749.72;;;26.39;18.69
24620;BME280;12763;55.802;37.404;2023-05-09T12:41:48;100760.16;;;24.50;18.94
24620;BME280;12763;55.802;37.404;2023-05-09T12:44:23;100756.53;;;23.67;19.57
24620;BME280;12763;55.802;37.404;2023-05-09T12:46:57;100746.69;;;23.70;19.54
24620;BME280;12763;55.802;37.404;2023-05-09T12:49:24;100758.03;;;23.95;20.09
24620;BME280;12763;55.802;37.404;2023-05-09T12:51:51;100747.44;;;24.73;19.19
24620;BME280;12763;55.802;37.404;2023-05-09T12:54:26;100737.19;;;25.47;18.50
24620;BME280;12763;55.802;37.404;2023-05-09T12:56:53;100730.78;;;24.16;19.26
24620;BME280;12763;55.802;37.404;2023-05-09T12:59:25;100733.91;;;24.65;18.83
24620;BME280;12763;55.802;37.404;2023-05-09T13:01:56;100720.34;;;25.07;18.84